createdAt,value
2019-05-01T00:00:51.989Z,69.90
2019-05-01T00:01:52.002Z,69.60
2019-05-01T00:02:51.949Z,66.30
2019-05-01T00:03:53.645Z,68.60
2019-05-01T00:04:51.966Z,64.90
2019-05-01T00:05:52.013Z,69.50
2019-05-01T00:06:51.981Z,70.40
2019-05-01T00:07:51.937Z,73.50
2019-05-01T00:08:51.903Z,71.50
2019-05-01T00:09:51.872Z,72.70
2019-05-01T00:10:51.885Z,75.30
2019-05-01T00:11:51.864Z,80.40
2019-05-01T00:12:51.897Z,76.50
2019-05-01T00:13:51.821Z,78.90
2019-05-01T00:14:51.803Z,73.80
2019-05-01T00:15:51.829Z,75.90
2019-05-01T00:16:51.814Z,77.30
2019-05-01T00:17:52.155Z,74.90
2019-05-01T00:18:51.774Z,73.80
2019-05-01T00:19:51.764Z,75.30
2019-05-01T00:20:51.764Z,72.40
2019-05-01T00:21:51.757Z,71.80
2019-05-01T00:22:51.768Z,70.70
2019-05-01T00:23:51.727Z,67.90
2019-05-01T00:24:51.697Z,68.50
2019-05-01T00:25:51.693Z,70.40
2019-05-01T00:26:51.677Z,71.00
2019-05-01T00:27:51.707Z,71.20
2019-05-01T00:28:51.662Z,71.10
2019-05-01T00:29:51.672Z,78.10
2019-05-01T00:30:51.633Z,72.40
2019-05-01T00:31:51.655Z,73.70
2019-05-01T00:32:51.701Z,71.10
2019-05-01T00:33:51.786Z,70.60
2019-05-01T00:34:51.610Z,70.90
2019-05-01T00:35:51.584Z,71.30
2019-05-01T00:36:51.576Z,74.80
2019-05-01T00:37:51.597Z,74.20
2019-05-01T00:38:51.609Z,73.00
2019-05-01T00:39:51.531Z,73.10
2019-05-01T00:40:51.529Z,75.50
2019-05-01T00:41:51.603Z,73.40
2019-05-01T00:42:51.549Z,69.20
2019-05-01T00:43:51.524Z,73.50
2019-05-01T00:44:51.499Z,71.90
2019-05-01T00:45:51.463Z,75.90
2019-05-01T00:46:51.449Z,70.20
2019-05-01T00:47:51.490Z,75.50
2019-05-01T00:48:51.535Z,74.90
2019-05-01T00:49:51.429Z,76.60
2019-05-01T00:50:51.435Z,75.60
2019-05-01T00:51:51.419Z,85.30
2019-05-01T00:52:51.470Z,82.70
2019-05-01T00:53:51.417Z,79.60
2019-05-01T00:54:51.379Z,86.40
2019-05-01T00:55:51.367Z,81.90
2019-05-01T00:56:51.363Z,79.70
2019-05-01T00:57:51.393Z,82.70
2019-05-01T00:58:51.399Z,91.80
2019-05-01T00:59:51.526Z,102.90
2019-05-01T01:00:51.319Z,86.00
2019-05-01T01:01:54.157Z,90.20
2019-05-01T01:02:51.345Z,82.70
2019-05-01T01:03:51.269Z,80.60
2019-05-01T01:04:51.288Z,80.50
2019-05-01T01:05:51.253Z,93.10
2019-05-01T01:06:51.240Z,89.90
2019-05-01T01:07:51.313Z,88.60
2019-05-01T01:08:51.217Z,88.70
2019-05-01T01:09:51.209Z,95.30
2019-05-01T01:10:51.374Z,83.70
2019-05-01T01:11:51.201Z,91.00
2019-05-01T01:12:51.205Z,94.40
2019-05-01T01:13:51.230Z,95.30
2019-05-01T01:14:51.154Z,101.20
2019-05-01T01:15:51.144Z,87.50
2019-05-01T01:16:51.159Z,91.00
2019-05-01T01:17:51.155Z,101.80
2019-05-01T01:18:51.109Z,94.00
2019-05-01T01:19:51.284Z,91.70
2019-05-01T01:20:51.172Z,96.80
2019-05-01T01:21:51.117Z,96.90
2019-05-01T01:22:51.148Z,96.60
2019-05-01T01:23:51.150Z,104.60
2019-05-01T01:24:51.893Z,108.80
2019-05-01T01:25:51.173Z,134.40
2019-05-01T01:26:51.080Z,97.80
2019-05-01T01:27:51.115Z,94.80
2019-05-01T01:28:51.017Z,91.30
2019-05-01T01:29:51.001Z,104.90
2019-05-01T01:30:56.435Z,108.60
2019-05-01T01:31:51.979Z,102.70
2019-05-01T01:32:50.979Z,102.40
2019-05-01T01:33:50.941Z,118.20
2019-05-01T01:34:51.053Z,104.90
2019-05-01T01:35:50.919Z,113.50
2019-05-01T01:36:50.961Z,165.80
2019-05-01T01:37:51.130Z,173.80
2019-05-01T01:38:50.903Z,121.60
2019-05-01T01:39:51.025Z,122.70
2019-05-01T01:40:50.950Z,101.50
2019-05-01T01:41:50.864Z,124.80
2019-05-01T01:42:50.969Z,118.30
2019-05-01T01:43:50.829Z,152.90
2019-05-01T01:44:50.954Z,112.90
2019-05-01T01:45:50.888Z,272.10
2019-05-01T01:46:50.895Z,376.80
2019-05-01T01:47:50.875Z,352.50
2019-05-01T01:48:50.917Z,259.60
2019-05-01T01:49:50.761Z,133.10
2019-05-01T01:50:50.781Z,121.50
2019-05-01T01:51:50.849Z,191.50
2019-05-01T01:52:50.879Z,153.80
2019-05-01T01:53:50.769Z,132.70
2019-05-01T01:54:50.719Z,126.60
2019-05-01T01:55:50.760Z,126.40
2019-05-01T01:56:50.727Z,146.10
2019-05-01T01:57:50.691Z,135.50
2019-05-01T01:58:52.794Z,130.60
2019-05-01T01:59:50.699Z,114.10
2019-05-01T02:00:50.678Z,130.80
2019-05-01T02:01:50.635Z,112.10
2019-05-01T02:02:50.661Z,109.40
2019-05-01T02:03:50.807Z,96.40
2019-05-01T02:04:50.601Z,107.40
2019-05-01T02:05:50.590Z,102.70
2019-05-01T02:06:50.607Z,104.80
2019-05-01T02:07:50.581Z,135.20
2019-05-01T02:08:56.583Z,128.40
2019-05-01T02:09:54.235Z,114.90
2019-05-01T02:10:50.569Z,117.50
2019-05-01T02:11:50.533Z,131.10
2019-05-01T02:12:51.775Z,116.10
2019-05-01T02:13:50.587Z,138.80
2019-05-01T02:14:50.502Z,126.80
2019-05-01T02:15:50.642Z,138.20
2019-05-01T02:16:50.532Z,111.60
2019-05-01T02:17:50.488Z,153.60
2019-05-01T02:18:50.496Z,133.90
2019-05-01T02:19:50.527Z,183.30
2019-05-01T02:20:50.482Z,123.60
2019-05-01T02:21:50.535Z,109.80
2019-05-01T02:22:50.416Z,136.70
2019-05-01T02:23:50.429Z,106.80
2019-05-01T02:24:50.459Z,107.50
2019-05-01T02:25:50.528Z,119.00
2019-05-01T02:26:50.363Z,96.80
2019-05-01T02:27:50.433Z,111.10
2019-05-01T02:28:50.426Z,109.90
2019-05-01T02:29:50.529Z,99.30
2019-05-01T02:30:50.324Z,110.20
2019-05-01T02:31:50.295Z,105.30
2019-05-01T02:32:50.298Z,92.60
2019-05-01T02:33:50.434Z,251.20
2019-05-01T02:34:50.333Z,192.80
2019-05-01T02:35:50.267Z,128.60
2019-05-01T02:36:50.276Z,483.10
2019-05-01T02:37:50.367Z,218.30
2019-05-01T02:38:50.310Z,367.60
2019-05-01T02:39:50.279Z,145.60
2019-05-01T02:40:50.449Z,126.80
2019-05-01T02:41:50.252Z,255.10
2019-05-01T02:42:50.185Z,122.10
2019-05-01T02:43:50.222Z,140.70
2019-05-01T02:44:50.223Z,142.80
2019-05-01T02:45:50.172Z,173.10
2019-05-01T02:46:50.231Z,151.20
2019-05-01T02:47:50.164Z,495.40
2019-05-01T02:48:52.828Z,243.80
2019-05-01T02:49:50.135Z,123.10
2019-05-01T02:50:50.194Z,123.40
2019-05-01T02:51:50.088Z,139.10
2019-05-01T02:52:50.110Z,110.80
2019-05-01T02:53:50.104Z,99.90
2019-05-01T02:54:50.040Z,113.50
2019-05-01T02:55:50.300Z,112.30
2019-05-01T02:56:50.029Z,121.30
2019-05-01T02:57:50.076Z,113.40
2019-05-01T02:58:50.188Z,104.90
2019-05-01T02:59:50.047Z,106.30
2019-05-01T03:00:50.034Z,102.40
2019-05-01T03:01:50.153Z,102.50
2019-05-01T03:02:49.993Z,159.00
2019-05-01T03:03:49.984Z,129.60
2019-05-01T03:04:50.048Z,168.60
2019-05-01T03:05:49.953Z,122.50
2019-05-01T03:06:50.052Z,109.90
2019-05-01T03:07:49.907Z,119.10
2019-05-01T03:08:50.006Z,124.10
2019-05-01T03:09:49.906Z,159.30
2019-05-01T03:10:49.928Z,122.80
2019-05-01T03:11:49.990Z,128.30
2019-05-01T03:12:50.055Z,108.20
2019-05-01T03:13:49.880Z,110.30
2019-05-01T03:14:49.863Z,165.80
2019-05-01T03:15:49.943Z,110.80
2019-05-01T03:16:49.837Z,130.90
2019-05-01T03:17:49.825Z,153.90
2019-05-01T03:18:49.963Z,141.90
2019-05-01T03:19:49.781Z,118.80
2019-05-01T03:20:49.866Z,131.50
2019-05-01T03:21:49.808Z,111.90
2019-05-01T03:22:49.744Z,106.40
2019-05-01T03:23:49.815Z,132.20
2019-05-01T03:24:49.725Z,140.80
2019-05-01T03:25:49.726Z,164.60
2019-05-01T03:26:49.684Z,180.70
2019-05-01T03:27:49.698Z,152.10
2019-05-01T03:28:49.705Z,146.80
2019-05-01T03:29:49.660Z,145.60
2019-05-01T03:30:49.655Z,121.80
2019-05-01T03:32:14.588Z,119.90
2019-05-01T03:32:50.620Z,115.30
2019-05-01T03:33:49.663Z,103.80
2019-05-01T03:34:52.594Z,118.30
2019-05-01T03:35:49.601Z,115.20
2019-05-01T03:36:49.618Z,104.50
2019-05-01T03:37:49.565Z,115.00
2019-05-01T03:38:49.611Z,103.90
2019-05-01T03:39:49.661Z,283.30
2019-05-01T03:40:49.543Z,144.10
2019-05-01T03:41:49.518Z,117.80
2019-05-01T03:42:49.540Z,175.40
2019-05-01T03:43:49.551Z,137.20
2019-05-01T03:44:49.514Z,282.10
2019-05-01T03:45:49.482Z,260.00
2019-05-01T03:46:49.517Z,383.90
2019-05-01T03:47:49.522Z,231.10
2019-05-01T03:48:50.178Z,703.60
2019-05-01T03:49:49.548Z,275.20
2019-05-01T03:50:49.434Z,156.90
2019-05-01T03:51:49.483Z,134.50
2019-05-01T03:52:49.429Z,141.80
2019-05-01T03:53:49.445Z,190.60
2019-05-01T03:54:49.446Z,283.60
2019-05-01T03:55:49.366Z,135.80
2019-05-01T03:56:49.421Z,138.40
2019-05-01T03:57:49.374Z,191.60
2019-05-01T03:58:49.364Z,774.10
2019-05-01T03:59:49.370Z,396.90
2019-05-01T04:00:49.318Z,269.80
2019-05-01T04:01:49.302Z,166.20
2019-05-01T04:02:49.319Z,298.60
2019-05-01T04:03:52.176Z,138.20
2019-05-01T04:04:49.442Z,529.00
2019-05-01T04:05:49.270Z,676.00
2019-05-01T04:06:49.247Z,633.40
2019-05-01T04:07:49.274Z,164.20
2019-05-01T04:08:49.247Z,155.80
2019-05-01T04:09:49.256Z,171.80
2019-05-01T04:10:49.228Z,159.90
2019-05-01T04:11:49.194Z,245.90
2019-05-01T04:12:49.200Z,134.20
2019-05-01T04:13:49.223Z,276.10
2019-05-01T04:14:49.194Z,177.50
2019-05-01T04:15:49.208Z,313.90
2019-05-01T04:16:49.138Z,453.90
2019-05-01T04:17:49.126Z,268.60
2019-05-01T04:18:49.122Z,278.70
2019-05-01T04:19:49.217Z,388.90
2019-05-01T04:20:49.110Z,363.40
2019-05-01T04:21:49.130Z,491.90
2019-05-01T04:22:49.071Z,584.20
2019-05-01T04:23:49.660Z,681.20
2019-05-01T04:24:49.076Z,413.20
2019-05-01T04:25:49.076Z,151.50
2019-05-01T04:26:49.029Z,182.80
2019-05-01T04:27:49.026Z,716.30
2019-05-01T04:28:49.012Z,319.20
2019-05-01T04:29:49.029Z,193.10
2019-05-01T04:30:49.012Z,254.90
2019-05-01T04:31:49.059Z,321.80
2019-05-01T04:32:52.483Z,215.20
2019-05-01T04:33:48.962Z,241.00
2019-05-01T04:34:49.002Z,321.60
2019-05-01T04:35:48.948Z,283.60
2019-05-01T04:36:48.966Z,480.30
2019-05-01T04:37:48.915Z,572.90
2019-05-01T04:38:48.903Z,213.70
2019-05-01T04:39:49.035Z,223.10
2019-05-01T04:40:48.899Z,241.40
2019-05-01T04:41:48.874Z,427.80
2019-05-01T04:42:48.875Z,251.10
2019-05-01T04:43:48.853Z,131.20
2019-05-01T04:44:48.903Z,151.30
2019-05-01T04:45:48.823Z,131.40
2019-05-01T04:46:48.842Z,139.60
2019-05-01T04:47:48.865Z,248.20
2019-05-01T04:48:49.672Z,147.10
2019-05-01T04:49:48.773Z,243.00
2019-05-01T04:50:48.894Z,413.60
2019-05-01T04:51:48.791Z,295.10
2019-05-01T04:52:48.740Z,346.50
2019-05-01T04:53:48.739Z,427.50
2019-05-01T04:54:48.711Z,416.30
2019-05-01T04:55:48.806Z,468.90
2019-05-01T04:56:48.716Z,340.90
2019-05-01T04:57:48.679Z,317.00
2019-05-01T04:58:48.685Z,235.30
2019-05-01T04:59:48.723Z,477.60
2019-05-01T05:00:48.693Z,593.80
2019-05-01T05:01:48.678Z,252.90
2019-05-01T05:02:48.627Z,405.30
2019-05-01T05:03:48.748Z,467.00
2019-05-01T05:04:48.619Z,627.10
2019-05-01T05:05:48.650Z,788.00
2019-05-01T05:06:48.619Z,740.60
2019-05-01T05:07:48.609Z,254.00
2019-05-01T05:08:48.575Z,675.30
2019-05-01T05:09:48.570Z,380.30
2019-05-01T05:10:48.570Z,491.60
2019-05-01T05:11:48.535Z,776.90
2019-05-01T05:12:48.566Z,646.00
2019-05-01T05:13:48.585Z,676.70
2019-05-01T05:14:48.501Z,553.40
2019-05-01T05:15:48.519Z,640.70
2019-05-01T05:16:48.500Z,752.70
2019-05-01T05:17:48.479Z,653.40
2019-05-01T05:18:48.504Z,333.20
2019-05-01T05:19:48.478Z,281.10
2019-05-01T05:20:48.504Z,277.60
2019-05-01T05:21:48.453Z,256.10
2019-05-01T05:22:48.407Z,294.00
2019-05-01T05:23:48.427Z,168.80
2019-05-01T05:24:48.390Z,158.80
2019-05-01T05:25:48.473Z,135.60
2019-05-01T05:26:48.365Z,127.90
2019-05-01T05:27:48.357Z,144.90
2019-05-01T05:28:48.349Z,129.10
2019-05-01T05:29:48.377Z,125.80
2019-05-01T05:30:48.351Z,149.70
2019-05-01T05:31:48.329Z,204.70
2019-05-01T05:32:48.307Z,204.20
2019-05-01T05:33:48.348Z,197.60
2019-05-01T05:34:48.341Z,364.50
2019-05-01T05:35:48.289Z,144.00
2019-05-01T05:36:48.270Z,168.20
2019-05-01T05:37:48.267Z,204.00
2019-05-01T05:38:48.247Z,252.20
2019-05-01T05:39:48.226Z,391.70
2019-05-01T05:40:48.219Z,281.40
2019-05-01T05:41:48.279Z,362.40
2019-05-01T05:42:48.199Z,166.80
2019-05-01T05:43:48.209Z,296.90
2019-05-01T05:44:48.178Z,514.60
2019-05-01T05:45:48.163Z,212.40
2019-05-01T05:46:48.198Z,203.60
2019-05-01T05:47:48.139Z,149.20
2019-05-01T05:48:48.146Z,113.70
2019-05-01T05:49:48.164Z,110.80
2019-05-01T05:50:48.100Z,100.80
2019-05-01T05:51:48.119Z,109.80
2019-05-01T05:52:48.080Z,109.80
2019-05-01T05:53:48.065Z,114.80
2019-05-01T05:54:48.079Z,99.60
2019-05-01T05:55:48.093Z,93.20
2019-05-01T05:56:48.061Z,94.70
2019-05-01T05:57:48.025Z,127.30
2019-05-01T05:58:48.022Z,127.30
2019-05-01T05:59:48.031Z,114.10
2019-05-01T06:00:48.003Z,210.70
2019-05-01T06:01:48.006Z,177.60
2019-05-01T06:02:47.978Z,145.20
2019-05-01T06:03:47.965Z,193.60
2019-05-01T06:04:47.942Z,134.80
2019-05-01T06:05:47.933Z,123.90
2019-05-01T06:06:47.985Z,96.40
2019-05-01T06:07:48.019Z,103.70
2019-05-01T06:08:47.923Z,173.60
2019-05-01T06:09:48.540Z,102.10
2019-05-01T06:10:47.875Z,143.40
2019-05-01T06:11:47.911Z,116.50
2019-05-01T06:12:48.601Z,118.10
2019-05-01T06:13:47.889Z,124.90
2019-05-01T06:14:47.835Z,109.20
2019-05-01T06:15:49.163Z,100.90
2019-05-01T06:16:52.045Z,100.90
2019-05-01T06:17:48.805Z,100.60
2019-05-01T06:18:47.808Z,101.00
2019-05-01T06:19:49.642Z,115.40
2019-05-01T06:20:47.790Z,122.30
2019-05-01T06:21:47.753Z,144.20
2019-05-01T06:22:47.765Z,142.60
2019-05-01T06:23:47.773Z,91.60
2019-05-01T06:24:47.719Z,83.90
2019-05-01T06:25:47.727Z,83.20
2019-05-01T06:26:47.697Z,88.20
2019-05-01T06:27:49.207Z,81.50
2019-05-01T06:28:47.671Z,87.70
2019-05-01T06:29:47.659Z,83.10
2019-05-01T06:30:48.879Z,92.20
2019-05-01T06:31:47.677Z,82.90
2019-05-01T06:32:47.664Z,87.60
2019-05-01T06:33:48.634Z,86.70
2019-05-01T06:34:48.603Z,76.70
2019-05-01T06:35:47.628Z,79.30
2019-05-01T06:36:49.745Z,78.90
2019-05-01T06:37:47.635Z,83.40
2019-05-01T06:38:47.587Z,76.20
2019-05-01T06:39:49.669Z,74.10
2019-05-01T06:40:47.545Z,78.20
2019-05-01T06:41:47.541Z,79.70
2019-05-01T06:42:50.137Z,75.40
2019-05-01T06:43:47.529Z,76.00
2019-05-01T06:44:47.493Z,75.30
2019-05-01T06:45:51.694Z,73.20
2019-05-01T06:46:48.501Z,71.00
2019-05-01T06:47:47.461Z,72.60
2019-05-01T06:48:48.834Z,79.70
2019-05-01T06:49:48.434Z,70.00
2019-05-01T06:50:50.317Z,62.30
2019-05-01T06:51:48.086Z,60.50
2019-05-01T06:52:48.439Z,64.40
2019-05-01T06:53:47.447Z,63.00
2019-05-01T06:54:47.767Z,63.60
2019-05-01T06:55:51.310Z,68.40
2019-05-01T06:56:47.513Z,62.30
2019-05-01T06:57:47.405Z,70.20
2019-05-01T06:58:51.050Z,67.10
2019-05-01T06:59:48.398Z,66.70
2019-05-01T07:00:47.343Z,75.10
2019-05-01T07:01:47.329Z,79.60
2019-05-01T07:02:47.303Z,70.40
2019-05-01T07:04:02.811Z,79.10
2019-05-01T07:04:48.287Z,74.40
2019-05-01T07:05:54.197Z,73.60
2019-05-01T07:06:48.263Z,75.60
2019-05-01T07:07:47.988Z,70.40
2019-05-01T07:08:48.316Z,69.60
2019-05-01T07:09:49.382Z,65.70
2019-05-01T07:10:47.261Z,64.90
2019-05-01T07:11:52.281Z,64.30
2019-05-01T07:12:49.129Z,68.40
2019-05-01T07:13:47.204Z,64.90
2019-05-01T07:14:50.831Z,61.70
2019-05-01T07:15:47.441Z,62.60
2019-05-01T07:16:47.207Z,58.70
2019-05-01T07:17:47.799Z,59.60
2019-05-01T07:18:47.168Z,61.80
2019-05-01T07:19:47.115Z,67.80
2019-05-01T07:20:50.965Z,60.20
2019-05-01T07:21:47.115Z,61.90
2019-05-01T07:22:47.093Z,59.00
2019-05-01T07:23:47.862Z,64.50
2019-05-01T07:24:49.092Z,65.20
2019-05-01T07:25:47.042Z,60.60
2019-05-01T07:26:48.113Z,59.40
2019-05-01T07:27:47.089Z,60.60
2019-05-01T07:28:47.089Z,57.70
2019-05-01T07:29:46.997Z,62.30
2019-05-01T07:30:49.998Z,61.20
2019-05-01T07:31:47.976Z,60.00
2019-05-01T07:32:49.693Z,57.40
2019-05-01T07:33:51.114Z,57.20
2019-05-01T07:34:49.007Z,58.80
2019-05-01T07:35:46.932Z,54.20
2019-05-01T07:36:50.178Z,54.70
2019-05-01T07:37:46.911Z,54.40
2019-05-01T07:38:46.991Z,54.00
2019-05-01T07:39:49.868Z,52.80
2019-05-01T07:40:46.884Z,54.90
2019-05-01T07:41:46.913Z,53.90
2019-05-01T07:42:48.251Z,54.20
2019-05-01T07:43:46.888Z,54.60
2019-05-01T07:44:46.863Z,55.60
2019-05-01T07:45:46.831Z,56.20
2019-05-01T07:46:48.796Z,56.20
2019-05-01T07:47:47.942Z,57.60
2019-05-01T07:48:46.826Z,56.60
2019-05-01T07:49:47.765Z,55.50
2019-05-01T07:50:47.877Z,58.80
2019-05-01T07:51:46.781Z,58.50
2019-05-01T07:52:47.637Z,58.20
2019-05-01T07:53:47.779Z,56.70
2019-05-01T07:54:47.279Z,58.30
2019-05-01T07:55:48.657Z,57.40
2019-05-01T07:56:46.693Z,55.70
2019-05-01T07:57:46.690Z,51.50
2019-05-01T07:58:47.614Z,53.70
2019-05-01T07:59:46.663Z,52.60
2019-05-01T08:00:46.735Z,51.90
2019-05-01T08:01:49.895Z,49.20
2019-05-01T08:02:46.663Z,49.10
2019-05-01T08:03:46.667Z,48.90
2019-05-01T08:04:46.618Z,52.30
2019-05-01T08:05:46.767Z,53.10
2019-05-01T08:06:46.607Z,53.30
2019-05-01T08:07:46.575Z,53.50
2019-05-01T08:08:46.581Z,53.60
2019-05-01T08:09:50.340Z,51.80
2019-05-01T08:10:46.539Z,51.70
2019-05-01T08:11:46.561Z,51.50
2019-05-01T08:12:46.642Z,50.80
2019-05-01T08:13:46.596Z,50.50
2019-05-01T08:14:47.685Z,53.30
2019-05-01T08:15:47.482Z,51.90
2019-05-01T08:16:46.514Z,54.70
2019-05-01T08:17:48.769Z,52.30
2019-05-01T08:18:47.561Z,53.50
2019-05-01T08:19:46.459Z,51.50
2019-05-01T08:20:50.434Z,48.40
2019-05-01T08:21:46.408Z,52.70
2019-05-01T08:22:46.437Z,48.90
2019-05-01T08:23:47.107Z,49.70
2019-05-01T08:24:46.461Z,51.10
2019-05-01T08:25:46.365Z,51.80
2019-05-01T08:26:46.390Z,50.40
2019-05-01T08:27:46.367Z,49.60
2019-05-01T08:28:46.331Z,49.80
2019-05-01T08:29:46.368Z,51.10
2019-05-01T08:30:47.982Z,53.00
2019-05-01T08:31:47.334Z,53.40
2019-05-01T08:32:46.372Z,51.40
2019-05-01T08:33:49.958Z,52.10
2019-05-01T08:34:49.196Z,48.40
2019-05-01T08:35:46.312Z,50.40
2019-05-01T08:36:47.265Z,49.60
2019-05-01T08:37:46.231Z,50.40
2019-05-01T08:38:46.333Z,50.30
2019-05-01T08:39:46.280Z,51.00
2019-05-01T08:40:46.221Z,47.30
2019-05-01T08:41:46.188Z,49.10
2019-05-01T08:42:46.183Z,48.50
2019-05-01T08:43:48.858Z,49.30
2019-05-01T08:44:47.215Z,46.30
2019-05-01T08:45:46.193Z,47.50
2019-05-01T08:46:46.866Z,50.80
2019-05-01T08:47:46.157Z,49.20
2019-05-01T08:48:46.111Z,49.40
2019-05-01T08:49:49.468Z,48.50
2019-05-01T08:50:46.081Z,47.80
2019-05-01T08:51:46.082Z,49.20
2019-05-01T08:52:47.478Z,48.80
2019-05-01T08:53:46.069Z,48.70
2019-05-01T08:54:46.076Z,50.30
2019-05-01T08:55:47.128Z,48.10
2019-05-01T08:56:46.033Z,47.80
2019-05-01T08:57:46.031Z,49.70
2019-05-01T08:58:49.498Z,51.60
2019-05-01T08:59:46.023Z,49.50
2019-05-01T09:00:46.013Z,46.60
2019-05-01T09:01:50.581Z,47.00
2019-05-01T09:02:46.992Z,48.60
2019-05-01T09:03:49.677Z,47.20
2019-05-01T09:04:46.986Z,45.10
2019-05-01T09:05:45.923Z,45.80
2019-05-01T09:06:45.918Z,44.90
2019-05-01T09:07:45.996Z,45.90
2019-05-01T09:08:45.931Z,49.20
2019-05-01T09:09:47.401Z,45.10
2019-05-01T09:10:45.871Z,44.60
2019-05-01T09:11:45.870Z,44.70
2019-05-01T09:12:46.887Z,42.70
2019-05-01T09:13:45.907Z,43.10
2019-05-01T09:14:45.859Z,44.60
2019-05-01T09:15:48.307Z,43.50
2019-05-01T09:16:45.842Z,44.40
2019-05-01T09:17:45.787Z,45.10
2019-05-01T09:18:45.801Z,44.30
2019-05-01T09:19:45.817Z,44.50
2019-05-01T09:20:45.789Z,45.50
2019-05-01T09:21:45.749Z,44.10
2019-05-01T09:22:45.771Z,40.80
2019-05-01T09:23:46.302Z,43.00
2019-05-01T09:24:46.741Z,42.90
2019-05-01T09:25:45.727Z,43.30
2019-05-01T09:26:50.262Z,41.00
2019-05-01T09:27:46.685Z,42.70
2019-05-01T09:28:45.669Z,42.10
2019-05-01T09:29:46.836Z,41.70
2019-05-01T09:30:46.640Z,43.10
2019-05-01T09:31:45.637Z,42.80
2019-05-01T09:32:53.945Z,41.60
2019-05-01T09:33:46.613Z,44.70
2019-05-01T09:34:45.636Z,44.10
2019-05-01T09:35:46.731Z,43.30
2019-05-01T09:36:45.587Z,44.20
2019-05-01T09:37:45.566Z,45.40
2019-05-01T09:38:45.549Z,45.80
2019-05-01T09:39:47.323Z,42.40
2019-05-01T09:40:45.551Z,42.00
2019-05-01T09:41:47.500Z,44.50
2019-05-01T09:42:45.503Z,44.10
2019-05-01T09:43:45.522Z,40.90
2019-05-01T09:44:45.576Z,40.90
2019-05-01T09:45:45.531Z,40.60
2019-05-01T09:46:45.461Z,39.90
2019-05-01T09:47:45.523Z,42.20
2019-05-01T09:48:45.444Z,43.00
2019-05-01T09:49:48.740Z,40.90
2019-05-01T09:50:46.438Z,38.50
2019-05-01T09:51:47.484Z,41.70
2019-05-01T09:52:45.439Z,38.90
2019-05-01T09:53:45.383Z,39.90
2019-05-01T09:54:46.769Z,40.10
2019-05-01T09:55:45.351Z,43.20
2019-05-01T09:56:45.363Z,43.20
2019-05-01T09:57:45.347Z,44.00
2019-05-01T09:58:45.326Z,42.60
2019-05-01T09:59:45.343Z,43.00
2019-05-01T10:00:48.836Z,38.90
2019-05-01T10:01:46.372Z,40.00
2019-05-01T10:02:45.321Z,41.30
2019-05-01T10:03:49.438Z,40.70
2019-05-01T10:04:46.319Z,43.00
2019-05-01T10:05:45.263Z,38.60
2019-05-01T10:06:47.765Z,40.10
2019-05-01T10:07:46.255Z,41.90
2019-05-01T10:08:45.228Z,41.90
2019-05-01T10:09:47.301Z,42.90
2019-05-01T10:10:46.195Z,43.50
2019-05-01T10:11:45.195Z,42.80
2019-05-01T10:12:47.017Z,44.40
2019-05-01T10:13:45.215Z,44.90
2019-05-01T10:14:45.829Z,45.20
2019-05-01T10:15:45.232Z,45.10
2019-05-01T10:16:45.181Z,45.80
2019-05-01T10:17:45.122Z,47.30
2019-05-01T10:18:45.122Z,44.80
2019-05-01T10:19:45.201Z,46.20
2019-05-01T10:20:45.096Z,43.80
2019-05-01T10:21:45.087Z,43.60
2019-05-01T10:22:45.103Z,43.80
2019-05-01T10:23:47.163Z,44.90
2019-05-01T10:24:46.114Z,44.60
2019-05-01T10:25:47.893Z,43.30
2019-05-01T10:26:45.034Z,43.20
2019-05-01T10:27:45.066Z,42.90
2019-05-01T10:28:49.529Z,42.60
2019-05-01T10:29:46.037Z,42.80
2019-05-01T10:30:45.007Z,44.40
2019-05-01T10:31:46.666Z,45.10
2019-05-01T10:32:45.003Z,46.00
2019-05-01T10:33:44.952Z,45.60
2019-05-01T10:34:44.927Z,48.50
2019-05-01T10:35:45.036Z,46.00
2019-05-01T10:36:44.910Z,45.50
2019-05-01T10:37:44.905Z,45.10
2019-05-01T10:38:46.841Z,45.80
2019-05-01T10:39:44.941Z,46.90
2019-05-01T10:40:44.883Z,45.00
2019-05-01T10:41:46.436Z,43.50
2019-05-01T10:42:44.947Z,43.10
2019-05-01T10:43:44.982Z,44.80
2019-05-01T10:44:44.981Z,45.30
2019-05-01T10:45:44.982Z,44.90
2019-05-01T10:46:44.877Z,45.00
2019-05-01T10:47:44.797Z,43.10
2019-05-01T10:48:44.867Z,45.20
2019-05-01T10:49:44.796Z,46.20
2019-05-01T10:50:44.915Z,44.70
2019-05-01T10:51:44.790Z,45.60
2019-05-01T10:52:44.765Z,43.40
2019-05-01T10:53:44.726Z,44.10
2019-05-01T10:54:46.542Z,44.60
2019-05-01T10:55:44.793Z,44.40
2019-05-01T10:56:44.777Z,45.70
2019-05-01T10:57:44.715Z,44.20
2019-05-01T10:58:44.821Z,44.60
2019-05-01T10:59:44.659Z,41.90
2019-05-01T11:00:44.687Z,42.00
2019-05-01T11:01:44.779Z,41.20
2019-05-01T11:02:44.688Z,41.00
2019-05-01T11:03:45.220Z,40.70
2019-05-01T11:04:44.609Z,41.20
2019-05-01T11:05:55.220Z,43.40
2019-05-01T11:06:45.581Z,42.10
2019-05-01T11:07:44.799Z,44.20
2019-05-01T11:08:44.710Z,42.20
2019-05-01T11:09:44.537Z,42.10
2019-05-01T11:10:44.722Z,43.00
2019-05-01T11:11:44.593Z,40.60
2019-05-01T11:12:44.594Z,42.70
2019-05-01T11:13:44.503Z,43.40
2019-05-01T11:14:44.799Z,40.80
2019-05-01T11:15:44.520Z,44.00
2019-05-01T11:16:44.615Z,44.90
2019-05-01T11:17:44.453Z,41.00
2019-05-01T11:18:44.507Z,42.70
2019-05-01T11:19:44.499Z,43.30
2019-05-01T11:20:44.504Z,42.80
2019-05-01T11:21:44.456Z,39.70
2019-05-01T11:22:44.411Z,41.60
2019-05-01T11:23:44.621Z,40.90
2019-05-01T11:24:44.387Z,42.20
2019-05-01T11:25:44.690Z,41.70
2019-05-01T11:26:45.219Z,43.50
2019-05-01T11:27:44.373Z,41.10
2019-05-01T11:28:44.369Z,41.90
2019-05-01T11:29:44.759Z,41.40
2019-05-01T11:30:44.348Z,44.10
2019-05-01T11:31:44.323Z,41.90
2019-05-01T11:32:44.316Z,43.00
2019-05-01T11:33:44.288Z,44.00
2019-05-01T11:34:44.271Z,41.70
2019-05-01T11:35:44.382Z,42.50
2019-05-01T11:36:44.257Z,41.80
2019-05-01T11:37:44.241Z,44.40
2019-05-01T11:38:44.259Z,44.20
2019-05-01T11:39:44.229Z,43.80
2019-05-01T11:40:44.270Z,44.50
2019-05-01T11:41:44.236Z,44.50
2019-05-01T11:42:44.309Z,42.90
2019-05-01T11:43:44.238Z,44.60
2019-05-01T11:44:44.188Z,42.00
2019-05-01T11:45:44.265Z,44.10
2019-05-01T11:46:44.230Z,44.60
2019-05-01T11:47:44.143Z,45.80
2019-05-01T11:48:44.650Z,44.80
2019-05-01T11:49:44.159Z,43.90
2019-05-01T11:50:44.362Z,42.80
2019-05-01T11:51:45.728Z,44.80
2019-05-01T11:52:44.074Z,45.60
2019-05-01T11:53:44.062Z,45.60
2019-05-01T11:54:44.073Z,46.60
2019-05-01T11:55:44.053Z,44.90
2019-05-01T11:56:44.124Z,46.60
2019-05-01T11:57:44.023Z,41.00
2019-05-01T11:58:44.244Z,42.40
2019-05-01T11:59:43.995Z,43.90
2019-05-01T12:00:44.171Z,42.00
2019-05-01T12:01:44.085Z,42.00
2019-05-01T12:02:44.121Z,42.20
2019-05-01T12:03:44.057Z,43.00
2019-05-01T12:04:43.948Z,41.70
2019-05-01T12:05:43.951Z,42.20
2019-05-01T12:06:44.110Z,44.90
2019-05-01T12:07:44.201Z,41.80
2019-05-01T12:08:43.975Z,43.80
2019-05-01T12:09:43.924Z,44.80
2019-05-01T12:10:43.971Z,43.60
2019-05-01T12:11:43.975Z,44.90
2019-05-01T12:12:43.857Z,46.70
2019-05-01T12:13:44.247Z,41.80
2019-05-01T12:14:43.897Z,44.90
2019-05-01T12:15:43.911Z,46.30
2019-05-01T12:16:43.961Z,46.70
2019-05-01T12:17:44.028Z,45.80
2019-05-01T12:18:43.873Z,44.70
2019-05-01T12:19:43.788Z,48.90
2019-05-01T12:20:43.781Z,44.40
2019-05-01T12:21:43.950Z,43.60
2019-05-01T12:22:43.835Z,44.00
2019-05-01T12:23:43.893Z,45.80
2019-05-01T12:24:43.731Z,43.50
2019-05-01T12:25:43.751Z,46.80
2019-05-01T12:26:43.743Z,45.90
2019-05-01T12:27:43.838Z,44.80
2019-05-01T12:28:43.680Z,43.40
2019-05-01T12:29:43.786Z,42.00
2019-05-01T12:30:43.688Z,43.70
2019-05-01T12:31:43.719Z,42.10
2019-05-01T12:32:43.890Z,42.60
2019-05-01T12:33:43.721Z,45.30
2019-05-01T12:34:43.620Z,43.20
2019-05-01T12:35:43.709Z,45.00
2019-05-01T12:36:43.711Z,44.60
2019-05-01T12:37:43.620Z,45.10
2019-05-01T12:38:43.635Z,43.30
2019-05-01T12:39:43.656Z,45.50
2019-05-01T12:40:43.632Z,44.60
2019-05-01T12:41:43.663Z,44.60
2019-05-01T12:42:43.543Z,44.50
2019-05-01T12:43:43.658Z,45.00